Time;durP1;ratioP1;P1;durP2;ratioP2;P2;SDS_P1;SDS_P2;PMS_P1;PMS_P2;Temp;Humidity;BMP_temperature;BMP_pressure;BME280_temperature;BME280_humidity;BME280_pressure;Samples;Min_cycle;Max_cycle;Signal;HPM_P1;HPM_P2
2022/08/14 00:00:26;;;;;;;2.60;2.40;;;;;;;18.99;80.10;95847.41;5008457;28;20211;-84
2022/08/14 00:02:54;;;;;;;2.47;2.27;;;;;;;18.92;79.50;95840.69;5006008;28;20199;-84
2022/08/14 00:05:22;;;;;;;2.47;2.27;;;;;;;18.82;79.67;95833.44;5005747;28;20204;-85
2022/08/14 00:07:50;;;;;;;2.40;2.20;;;;;;;18.75;79.61;95825.59;5007270;28;20245;-84
2022/08/14 00:10:22;;;;;;;2.77;2.47;;;;;;;18.63;80.75;95827.94;5007538;28;20206;-84
2022/08/14 00:12:52;;;;;;;3.70;2.60;;;;;;;18.65;80.57;95830.38;5005420;28;20218;-84
2022/08/14 00:15:23;;;;;;;3.90;2.43;;;;;;;18.68;81.06;95819.69;5013211;28;20198;-85
2022/08/14 00:17:51;;;;;;;3.17;2.30;;;;;;;18.72;81.49;95820.72;5003099;28;20221;-84
2022/08/14 00:20:20;;;;;;;2.93;2.60;;;;;;;18.73;81.42;95822.34;5009105;28;20221;-84
2022/08/14 00:22:47;;;;;;;2.60;2.40;;;;;;;18.64;81.08;95815.09;5024067;28;20309;-84
2022/08/14 00:25:14;;;;;;;2.73;2.50;;;;;;;18.53;81.62;95820.69;5006456;28;20199;-84
2022/08/14 00:27:41;;;;;;;3.40;2.60;;;;;;;18.45;82.10;95807.66;4998093;28;20219;-84
2022/08/14 00:30:11;;;;;;;5.90;2.80;;;;;;;18.54;82.41;95802.34;5010415;28;20207;-84
2022/08/14 00:32:40;;;;;;;3.63;2.60;;;;;;;18.55;81.59;95798.50;4999568;28;20269;-84
2022/08/14 00:35:09;;;;;;;4.20;2.80;;;;;;;18.49;81.92;95797.75;5002465;28;20228;-84
2022/08/14 00:37:39;;;;;;;3.00;2.70;;;;;;;18.31;82.96;95787.59;5007029;28;20207;-83
2022/08/14 00:40:08;;;;;;;3.00;2.70;;;;;;;18.23;84.10;95796.44;5006972;28;20207;-84
2022/08/14 00:42:35;;;;;;;3.17;2.83;;;;;;;18.15;84.91;95803.38;5007286;28;20211;-84
2022/08/14 00:45:03;;;;;;;3.47;2.67;;;;;;;18.22;84.54;95794.00;5023772;28;20203;-84
2022/08/14 00:47:30;;;;;;;2.80;2.50;;;;;;;18.18;84.75;95790.25;4996710;28;20234;-84
2022/08/14 00:49:58;;;;;;;3.50;2.70;;;;;;;18.21;85.10;95789.63;5025000;28;20226;-84
2022/08/14 00:52:26;;;;;;;3.03;2.73;;;;;;;18.22;84.01;95778.41;5023726;28;20221;-84
2022/08/14 00:54:55;;;;;;;2.90;2.60;;;;;;;18.06;84.39;95769.59;5006930;28;20218;-84
2022/08/14 00:57:25;;;;;;;3.70;2.70;;;;;;;18.14;84.87;95788.06;5012637;28;20337;-84
2022/08/14 00:59:52;;;;;;;4.67;2.97;;;;;;;18.22;84.37;95777.59;5006020;28;20587;-84
2022/08/14 01:02:23;;;;;;;3.20;2.57;;;;;;;18.22;83.96;95781.16;5004997;28;20218;-85
2022/08/14 01:04:52;;;;;;;2.60;2.40;;;;;;;18.11;84.13;95768.75;5003322;28;20204;-84
2022/08/14 01:07:22;;;;;;;2.93;2.50;;;;;;;18.03;85.13;95763.91;5008968;28;20238;-84
2022/08/14 01:09:51;;;;;;;2.70;2.40;;;;;;;17.99;86.56;95762.88;5019608;28;20230;-84
2022/08/14 01:12:19;;;;;;;2.70;2.50;;;;;;;18.00;85.87;95765.31;5021932;28;20209;-84
2022/08/14 01:14:46;;;;;;;3.03;2.43;;;;;;;18.00;85.86;95759.03;5008162;28;20271;-84
2022/08/14 01:17:14;;;;;;;4.83;2.73;;;;;;;17.98;85.55;95745.66;5007428;28;20278;-84
2022/08/14 01:22:27;;;;;;;3.30;2.70;;;;;;;18.02;84.58;95751.38;4999864;28;20237;-84
2022/08/14 01:24:54;;;;;;;3.40;2.30;;;;;;;18.04;84.49;95744.47;5025016;28;20222;-84
2022/08/14 01:27:23;;;;;;;2.80;2.47;;;;;;;18.07;83.68;95738.44;5008724;28;20302;-84
2022/08/14 01:29:55;;;;;;;4.10;2.63;;;;;;;18.11;82.68;95734.03;5004558;28;20217;-85
2022/08/14 01:32:23;;;;;;;3.30;2.60;;;;;;;18.13;82.74;95731.81;5004469;28;20294;-84
2022/08/14 01:34:52;;;;;;;2.90;2.43;;;;;;;18.23;83.38;95736.31;5007651;28;20294;-83
2022/08/14 01:37:23;;;;;;;2.87;2.57;;;;;;;18.25;83.88;95727.84;5004470;28;20199;-84
2022/08/14 01:39:52;;;;;;;4.70;2.70;;;;;;;18.08;84.77;95720.94;5007670;28;20212;-85
2022/08/14 01:42:20;;;;;;;5.80;2.50;;;;;;;18.09;83.83;95719.84;5007635;28;20237;-84
2022/08/14 01:44:49;;;;;;;2.83;2.60;;;;;;;18.14;84.55;95722.50;5006107;28;20203;-84
2022/08/14 01:47:17;;;;;;;2.57;2.37;;;;;;;18.09;83.61;95708.09;5013871;28;20203;-84
2022/08/14 01:49:45;;;;;;;2.70;2.50;;;;;;;18.25;81.77;95711.44;5002990;28;20239;-85
2022/08/14 01:52:13;;;;;;;2.90;2.40;;;;;;;18.30;82.27;95714.91;5008709;28;20257;-84
2022/08/14 01:54:40;;;;;;;3.17;2.27;;;;;;;18.24;82.86;95704.34;5008623;28;20199;-84
2022/08/14 01:57:10;;;;;;;2.33;2.00;;;;;;;18.19;83.48;95709.91;5007399;28;20230;-83
2022/08/14 01:59:42;;;;;;;2.57;2.30;;;;;;;18.15;83.57;95701.47;5019629;28;20211;-85
2022/08/14 02:02:13;;;;;;;4.40;2.47;;;;;;;18.12;82.22;95691.09;5006466;28;20265;-84
2022/08/14 02:04:40;;;;;;;2.60;2.40;;;;;;;18.15;83.80;95698.72;5003338;28;20199;-84
2022/08/14 02:07:09;;;;;;;2.47;2.27;;;;;;;18.18;83.65;95700.88;5008543;28;20230;-84
2022/08/14 02:09:37;;;;;;;2.80;2.60;;;;;;;18.10;82.21;95698.81;5005143;28;20230;-84
2022/08/14 02:12:06;;;;;;;2.73;2.50;;;;;;;18.06;83.46;95687.63;5006372;28;20206;-84
2022/08/14 02:14:35;;;;;;;2.70;2.50;;;;;;;17.97;82.97;95688.59;5003807;28;20218;-84
2022/08/14 02:17:08;;;;;;;2.60;2.40;;;;;;;17.93;84.09;95682.91;5007568;28;20274;-84
2022/08/14 02:19:35;;;;;;;3.70;2.70;;;;;;;17.94;84.04;95690.00;5007257;28;20200;-84
2022/08/14 02:22:03;;;;;;;2.97;2.50;;;;;;;17.76;86.01;95688.03;5005528;28;20203;-84
2022/08/14 02:24:31;;;;;;;4.33;2.50;;;;;;;17.62;87.17;95687.91;5007999;28;20215;-83
2022/08/14 02:26:59;;;;;;;3.93;2.50;;;;;;;17.53;88.50;95692.34;4999374;28;20233;-84
2022/08/14 02:29:31;;;;;;;2.70;2.50;;;;;;;17.58;87.77;95683.31;5000306;28;20220;-84
2022/08/14 02:32:00;;;;;;;2.60;2.40;;;;;;;17.65;87.61;95676.41;5009383;28;20213;-84
2022/08/14 02:34:30;;;;;;;3.83;2.90;;;;;;;17.70;86.58;95672.81;5006027;28;20214;-83
2022/08/14 02:37:01;;;;;;;4.77;2.70;;;;;;;17.72;87.23;95684.25;5012943;28;20281;-84
2022/08/14 02:39:29;;;;;;;2.77;2.20;;;;;;;17.67;86.79;95667.94;5023413;28;20223;-84
2022/08/14 02:41:57;;;;;;;3.07;2.77;;;;;;;17.56;87.10;95671.84;5005298;28;20205;-84
2022/08/14 02:44:25;;;;;;;3.20;2.90;;;;;;;17.44;87.98;95663.28;5021310;28;20222;-84
2022/08/14 02:46:54;;;;;;;2.70;2.50;;;;;;;17.48;89.03;95667.03;5003083;28;20229;-84
2022/08/14 02:49:25;;;;;;;3.30;2.53;;;;;;;17.46;89.07;95661.03;5028145;28;20226;-84
2022/08/14 02:51:52;;;;;;;3.80;2.47;;;;;;;17.46;89.39;95653.69;5027841;28;20199;-83
2022/08/14 02:54:21;;;;;;;2.80;2.60;;;;;;;17.54;89.07;95661.22;5005378;28;20242;-84
2022/08/14 02:56:49;;;;;;;4.00;2.70;;;;;;;17.57;89.05;95651.66;5006866;28;20284;-84
2022/08/14 02:59:17;;;;;;;3.00;2.80;;;;;;;17.55;89.80;95653.84;5004294;28;20298;-84
2022/08/14 03:01:46;;;;;;;2.70;2.50;;;;;;;17.55;89.78;95659.31;5003031;28;20202;-84
2022/08/14 03:04:14;;;;;;;4.90;2.90;;;;;;;17.59;89.09;95655.72;5008999;28;20207;-84
2022/08/14 03:06:43;;;;;;;3.17;2.97;;;;;;;17.42;89.88;95646.38;5009439;28;20219;-84
2022/08/14 03:09:11;;;;;;;3.23;2.63;;;;;;;17.15;91.07;95645.03;5010638;28;20337;-83
2022/08/14 03:11:41;;;;;;;2.90;2.60;;;;;;;17.12;91.09;95645.59;5001369;28;20275;-84
2022/08/14 03:14:10;;;;;;;4.90;2.90;;;;;;;17.11;91.41;95626.78;5008444;28;20211;-84
2022/08/14 03:16:38;;;;;;;3.57;2.80;;;;;;;17.09;93.24;95629.00;5009648;28;20211;-83
2022/08/14 03:19:07;;;;;;;2.93;2.63;;;;;;;17.07;93.18;95629.28;5014925;28;20198;-84
2022/08/14 03:21:36;;;;;;;4.87;2.97;;;;;;;17.08;93.08;95617.28;5009819;28;20206;-84
2022/08/14 03:24:14;;;;;;;3.30;3.00;;;;;;;17.08;92.39;95614.53;5009077;28;20302;-84
2022/08/14 03:26:43;;;;;;;6.63;3.10;;;;;;;17.06;92.91;95603.09;5006095;28;20211;-84
2022/08/14 03:29:12;;;;;;;3.10;2.80;;;;;;;17.01;93.22;95603.19;5012085;28;20490;-84
2022/08/14 03:31:40;;;;;;;3.00;2.70;;;;;;;17.01;94.08;95608.63;5008446;28;20200;-85
2022/08/14 03:34:09;;;;;;;2.90;2.70;;;;;;;17.07;93.58;95603.91;5003681;28;20290;-84
2022/08/14 03:36:38;;;;;;;4.07;2.60;;;;;;;17.10;93.35;95597.91;5027734;28;20199;-84
2022/08/14 03:39:08;;;;;;;5.43;2.70;;;;;;;17.07;94.15;95588.38;5006122;28;20195;-84
2022/08/14 03:41:35;;;;;;;4.33;2.70;;;;;;;17.11;92.82;95586.66;5002718;28;20207;-84
2022/08/14 03:44:06;;;;;;;3.57;3.23;;;;;;;17.14;93.29;95583.38;5008715;28;20204;-84
2022/08/14 03:46:37;;;;;;;3.23;2.47;;;;;;;17.16;92.77;95583.91;5006455;28;20226;-84
2022/08/14 03:49:06;;;;;;;2.87;2.57;;;;;;;17.03;93.32;95581.84;5003315;28;20226;-84
2022/08/14 03:51:34;;;;;;;3.53;2.80;;;;;;;16.96;94.37;95586.84;5011166;28;20298;-83
2022/08/14 03:54:07;;;;;;;2.60;2.40;;;;;;;16.95;94.07;95590.66;4998736;28;20297;-83
2022/08/14 03:56:37;;;;;;;2.60;2.40;;;;;;;16.96;93.40;95589.56;5005902;28;20286;-85
2022/08/14 03:59:10;;;;;;;3.10;2.60;;;;;;;16.95;93.62;95596.13;4999575;28;20211;-84
2022/08/14 04:01:39;;;;;;;3.80;2.53;;;;;;;16.93;93.35;95592.88;5010709;28;20237;-84
2022/08/14 04:04:07;;;;;;;2.47;2.23;;;;;;;16.91;93.22;95595.91;5012318;28;20210;-84
2022/08/14 04:06:36;;;;;;;2.67;2.43;;;;;;;16.92;93.60;95592.09;5004635;28;20203;-84
2022/08/14 04:09:05;;;;;;;2.90;2.43;;;;;;;16.96;93.03;95592.31;5005369;28;20224;-84
2022/08/14 04:11:32;;;;;;;2.80;2.60;;;;;;;16.96;93.07;95589.56;5008252;28;20221;-84
2022/08/14 04:14:00;;;;;;;2.67;2.47;;;;;;;16.97;93.25;95583.03;4999448;28;20215;-84
2022/08/14 04:16:29;;;;;;;2.97;2.67;;;;;;;17.03;92.78;95592.75;5010358;28;20329;-84
2022/08/14 04:18:59;;;;;;;3.30;3.00;;;;;;;16.91;93.76;95581.47;5009326;28;20198;-84
2022/08/14 04:21:28;;;;;;;2.63;2.43;;;;;;;16.84;94.38;95600.06;5021199;28;20222;-84
2022/08/14 04:23:58;;;;;;;3.07;2.77;;;;;;;16.74;94.61;95589.25;5007484;28;20199;-84
2022/08/14 04:26:26;;;;;;;4.33;3.00;;;;;;;16.72;95.29;95591.44;5005181;28;20297;-84
2022/08/14 04:28:54;;;;;;;3.20;2.90;;;;;;;16.66;95.63;95592.63;5003047;28;20225;-83
2022/08/14 04:31:25;;;;;;;5.57;2.73;;;;;;;16.67;96.40;95594.25;5010580;28;20281;-84
2022/08/14 04:33:52;;;;;;;2.73;2.53;;;;;;;16.63;96.42;95594.00;5009426;28;20211;-83
2022/08/14 04:36:20;;;;;;;5.47;3.57;;;;;;;16.51;98.18;95590.78;5005677;28;20210;-83
2022/08/14 04:44:16;;;;;;;3.03;2.73;;;;;;;16.64;95.05;95603.78;5010659;28;20202;-84
2022/08/14 04:48:11;;;;;;;4.07;3.37;;;;;;;16.60;95.23;95600.78;5009414;28;20199;-84
2022/08/14 04:49:32;;;;;;;3.60;3.03;;;;;;;16.62;96.33;95614.97;5006654;28;20238;-84
2022/08/14 04:52:02;;;;;;;2.97;2.73;;;;;;;16.58;95.70;95619.34;5009631;28;20207;-84
2022/08/14 04:54:30;;;;;;;3.83;2.80;;;;;;;16.49;96.01;95610.16;5007120;28;20207;-84
2022/08/14 04:56:57;;;;;;;3.80;3.00;;;;;;;16.48;96.32;95614.00;5006591;28;20223;-83
2022/08/14 04:59:25;;;;;;;3.20;2.70;;;;;;;16.45;96.48;95609.09;5007405;28;20202;-84
2022/08/14 05:01:53;;;;;;;3.30;3.00;;;;;;;16.55;96.65;95619.91;5008045;28;20214;-83
2022/08/14 05:04:22;;;;;;;2.97;2.70;;;;;;;16.41;98.02;95616.22;5008901;28;20277;-83
2022/08/14 05:06:50;;;;;;;4.27;2.70;;;;;;;16.32;98.65;95606.22;5007725;28;20207;-84
2022/08/14 05:09:18;;;;;;;4.17;2.73;;;;;;;16.33;98.73;95622.28;5008769;28;20347;-83
2022/08/14 05:11:46;;;;;;;3.90;2.70;;;;;;;16.36;98.50;95610.81;5002833;28;20235;-83
2022/08/14 05:14:13;;;;;;;4.83;2.90;;;;;;;16.40;99.05;95606.44;5005809;28;20208;-84
2022/08/14 05:16:40;;;;;;;3.53;2.83;;;;;;;16.49;98.46;95610.16;5007063;28;20292;-84
2022/08/14 05:19:09;;;;;;;3.30;3.00;;;;;;;16.47;97.96;95609.63;5008772;28;20223;-84
2022/08/14 05:21:36;;;;;;;3.20;2.70;;;;;;;16.40;98.84;95595.53;5002959;28;20207;-84
2022/08/14 05:24:04;;;;;;;3.20;2.90;;;;;;;16.45;98.85;95592.75;4999180;28;20215;-83
2022/08/14 05:26:31;;;;;;;4.93;2.77;;;;;;;16.49;98.83;95588.38;4997888;28;20199;-84
2022/08/14 05:28:58;;;;;;;3.33;2.63;;;;;;;16.32;100.00;95577.06;5006655;28;20227;-84
2022/08/14 05:31:25;;;;;;;3.60;2.40;;;;;;;16.34;100.00;95579.47;5008995;28;20203;-83
2022/08/14 05:33:52;;;;;;;2.77;2.57;;;;;;;16.41;100.00;95574.53;5001135;28;20207;-84
2022/08/14 05:36:21;;;;;;;5.23;3.20;;;;;;;16.39;100.00;95565.84;5005948;28;20257;-84
2022/08/14 05:38:48;;;;;;;3.50;2.70;;;;;;;16.45;100.00;95570.13;5007703;28;20349;-84
2022/08/14 05:41:17;;;;;;;2.83;2.63;;;;;;;16.54;100.00;95558.34;5014369;28;20208;-83
2022/08/14 05:43:47;;;;;;;3.30;2.93;;;;;;;16.60;98.75;95562.63;5005932;28;20258;-84
2022/08/14 05:46:18;;;;;;;3.23;2.80;;;;;;;16.62;99.05;95548.75;5011086;28;20214;-84
2022/08/14 05:48:48;;;;;;;3.43;2.73;;;;;;;16.47;99.56;95546.97;5019231;28;20248;-86
2022/08/14 05:51:15;;;;;;;4.50;2.97;;;;;;;16.40;99.72;95535.59;4997652;28;20231;-86
2022/08/14 05:53:44;;;;;;;2.80;2.60;;;;;;;16.42;100.00;95536.09;4997313;28;20204;-85
2022/08/14 05:56:11;;;;;;;3.90;3.37;;;;;;;16.46;99.75;95534.44;5000982;28;20250;-85
2022/08/14 05:58:38;;;;;;;4.47;2.70;;;;;;;16.47;100.00;95532.53;5000534;28;20211;-86
2022/08/14 06:01:08;;;;;;;3.33;2.97;;;;;;;16.55;98.97;95535.44;5014127;28;20207;-86
2022/08/14 06:03:35;;;;;;;3.60;3.30;;;;;;;16.54;99.07;95520.19;5001499;28;20211;-86
2022/08/14 06:06:02;;;;;;;3.27;2.83;;;;;;;16.59;99.15;95511.94;4997341;28;20319;-86
2022/08/14 06:08:31;;;;;;;3.00;2.60;;;;;;;16.62;99.45;95516.88;5001507;28;20211;-85
2022/08/14 06:11:04;;;;;;;5.63;2.77;;;;;;;16.59;99.88;95517.41;5016799;28;20231;-86
2022/08/14 06:13:34;;;;;;;2.60;2.40;;;;;;;16.67;99.19;95526.09;4998770;28;20262;-86
2022/08/14 06:16:01;;;;;;;2.93;2.50;;;;;;;16.63;98.21;95528.56;4992209;28;20334;-86
2022/08/14 06:18:28;;;;;;;3.93;2.83;;;;;;;16.54;99.85;95522.91;4999405;28;20219;-87
2022/08/14 06:20:55;;;;;;;3.20;2.93;;;;;;;16.46;100.00;95520.81;5000435;28;20207;-87
2022/08/14 06:23:22;;;;;;;3.50;3.20;;;;;;;16.32;100.00;95527.22;5000278;28;20199;-87
2022/08/14 06:25:49;;;;;;;3.53;2.73;;;;;;;16.34;100.00;95531.25;5005740;28;20312;-87
2022/08/14 06:28:19;;;;;;;3.50;3.20;;;;;;;16.34;100.00;95527.72;5007160;28;20214;-87
2022/08/14 06:30:47;;;;;;;4.17;3.17;;;;;;;16.38;100.00;95528.78;5004207;28;20247;-87
2022/08/14 06:33:15;;;;;;;2.80;2.60;;;;;;;16.38;100.00;95532.34;4997916;28;20212;-88
2022/08/14 06:35:43;;;;;;;3.77;2.40;;;;;;;16.43;100.00;95518.66;5015347;28;20219;-87
2022/08/14 06:38:15;;;;;;;2.57;2.33;;;;;;;16.51;100.00;95526.19;5007338;28;20208;-87
2022/08/14 06:40:42;;;;;;;5.43;3.40;;;;;;;16.53;99.46;95523.19;4999208;28;20196;-87
2022/08/14 06:43:11;;;;;;;4.17;3.43;;;;;;;16.41;99.18;95531.78;4994046;28;20209;-87
2022/08/14 06:45:43;;;;;;;3.97;3.57;;;;;;;16.36;100.00;95526.34;5001665;28;20207;-87
2022/08/14 06:48:15;;;;;;;3.43;3.13;;;;;;;16.34;100.00;95530.44;5000522;28;20216;-88
2022/08/14 06:50:42;;;;;;;2.90;2.67;;;;;;;16.29;100.00;95531.31;5001975;28;20231;-88
2022/08/14 06:53:10;;;;;;;3.13;2.83;;;;;;;16.31;100.00;95526.41;4999386;28;20208;-88
2022/08/14 06:55:38;;;;;;;4.23;2.63;;;;;;;16.41;100.00;95531.78;5002966;28;20193;-87
2022/08/14 06:58:05;;;;;;;3.40;3.10;;;;;;;16.44;100.00;95536.63;5003234;28;20230;-87
2022/08/14 07:00:32;;;;;;;3.07;2.77;;;;;;;16.45;99.96;95529.25;4997832;28;20257;-87
2022/08/14 07:05:48;;;;;;;3.07;2.77;;;;;;;16.63;100.00;95520.41;5008171;28;20358;-88
2022/08/14 07:08:18;;;;;;;3.07;2.60;;;;;;;16.68;100.00;95531.25;4999802;28;20204;-87
2022/08/14 07:10:46;;;;;;;2.83;2.63;;;;;;;16.79;100.00;95534.69;5017146;28;20227;-91
2022/08/14 07:13:14;;;;;;;2.37;2.17;;;;;;;16.75;98.98;95539.09;4996282;28;20200;-87
2022/08/14 07:15:44;;;;;;;3.80;2.57;;;;;;;16.79;99.08;95538.22;5003791;28;20219;-87
2022/08/14 07:18:13;;;;;;;3.13;2.70;;;;;;;16.84;99.50;95545.53;4992608;28;20212;-88
2022/08/14 07:20:41;;;;;;;3.83;3.10;;;;;;;16.91;99.53;95543.28;4997803;28;20207;-87
2022/08/14 07:23:10;;;;;;;3.30;2.67;;;;;;;16.95;99.21;95547.03;4993899;28;20212;-87
2022/08/14 07:25:38;;;;;;;5.17;2.53;;;;;;;16.87;98.72;95526.69;5007412;28;20283;-88
2022/08/14 07:28:11;;;;;;;2.40;2.20;;;;;;;16.95;97.02;95519.78;4996734;28;20215;-88
2022/08/14 07:30:39;;;;;;;2.67;2.30;;;;;;;17.08;95.16;95505.44;4998920;28;20222;-88
2022/08/14 07:33:07;;;;;;;2.63;2.40;;;;;;;17.17;93.20;95517.34;5000180;28;20263;-89
2022/08/14 07:35:37;;;;;;;3.37;2.40;;;;;;;17.27;90.46;95517.19;4995386;28;20231;-87
2022/08/14 07:38:05;;;;;;;3.13;2.47;;;;;;;17.54;92.12;95513.00;5006118;28;20215;-89
2022/08/14 07:40:33;;;;;;;2.80;2.60;;;;;;;18.00;88.87;95508.53;4997408;28;20200;-88
2022/08/14 07:43:01;;;;;;;3.47;2.70;;;;;;;18.49;87.30;95507.16;4997115;28;20204;-90
2022/08/14 07:45:28;;;;;;;2.77;2.57;;;;;;;18.95;89.05;95509.09;5000285;28;20239;-88
2022/08/14 07:47:56;;;;;;;3.50;2.30;;;;;;;19.24;84.89;95515.06;5000379;28;20203;-89
2022/08/14 07:50:24;;;;;;;5.03;2.77;;;;;;;19.36;82.80;95523.56;5003256;28;20655;-89
2022/08/14 07:52:53;;;;;;;2.83;2.57;;;;;;;19.43;80.03;95521.22;5003911;28;20207;-88
2022/08/14 07:55:20;;;;;;;2.53;2.33;;;;;;;19.64;78.70;95524.38;5006372;28;20239;-88
2022/08/14 07:57:49;;;;;;;2.90;2.50;;;;;;;19.98;77.80;95521.16;5006674;28;20299;-87
2022/08/14 08:00:18;;;;;;;3.53;2.72;;;;;;;20.37;73.63;95526.78;4997058;28;20227;-88
2022/08/14 08:02:50;;;;;;;3.08;2.67;;;;;;;20.70;71.96;95518.28;5000150;28;20216;-88
2022/08/14 08:05:19;;;;;;;3.40;2.55;;;;;;;20.98;69.60;95519.72;5004159;28;20254;-89
2022/08/14 08:07:48;;;;;;;2.90;2.60;;;;;;;21.19;73.12;95521.91;5008595;28;20211;-89
2022/08/14 08:10:33;;;;;;;2.55;2.30;;;;;;;21.25;72.71;95509.69;5009379;28;20216;-89
2022/08/14 08:13:04;;;;;;;2.75;2.50;;;;;;;21.24;71.20;95510.81;5004850;28;20207;-88
2022/08/14 08:15:34;;;;;;;3.17;2.47;;;;;;;21.47;70.42;95526.84;5005048;28;20227;-90
2022/08/14 08:18:03;;;;;;;4.72;2.60;;;;;;;21.64;71.89;95517.03;5002675;28;20621;-88
2022/08/14 08:20:32;;;;;;;3.08;2.60;;;;;;;21.88;73.76;95514.66;5004192;28;20299;-88
2022/08/14 08:23:00;;;;;;;5.38;3.05;;;;;;;22.10;69.48;95510.97;4999748;28;20263;-88
2022/08/14 08:25:31;;;;;;;4.55;3.08;;;;;;;22.42;66.94;95515.97;5006816;28;20226;-88
2022/08/14 08:28:00;;;;;;;3.03;2.50;;;;;;;22.70;65.70;95501.84;5016053;28;20215;-88
2022/08/14 08:30:28;;;;;;;3.17;2.88;;;;;;;22.98;64.38;95497.56;4996513;28;20613;-88
2022/08/14 08:32:57;;;;;;;3.55;2.60;;;;;;;23.20;63.64;95497.31;4992116;28;20223;-88
2022/08/14 08:35:27;;;;;;;3.53;3.00;;;;;;;23.37;64.17;95493.69;5017412;28;20322;-87
2022/08/14 08:38:00;;;;;;;4.57;3.03;;;;;;;23.57;63.98;95500.38;5022159;28;20323;-88
2022/08/14 08:40:35;;;;;;;5.35;2.90;;;;;;;23.71;62.83;95493.50;5005004;28;20240;-88
2022/08/14 08:43:03;;;;;;;2.58;2.38;;;;;;;23.79;60.42;95489.06;4998091;28;20220;-88
2022/08/14 08:45:30;;;;;;;2.85;2.65;;;;;;;23.87;59.29;95501.16;4995313;28;20226;-88
2022/08/14 08:47:57;;;;;;;2.80;2.50;;;;;;;24.04;58.16;95493.56;5000676;28;20230;-88
2022/08/14 08:50:29;;;;;;;3.65;2.70;;;;;;;24.23;57.23;95497.84;5012218;28;20242;-88
2022/08/14 08:52:58;;;;;;;4.50;2.53;;;;;;;24.36;56.80;95496.75;5007817;28;20212;-88
2022/08/14 08:55:33;;;;;;;3.17;2.63;;;;;;;24.41;55.77;95502.06;5003349;28;20204;-88
2022/08/14 08:58:03;;;;;;;3.47;2.88;;;;;;;24.46;58.37;95504.59;4999690;28;20290;-87
2022/08/14 09:00:32;;;;;;;4.18;2.67;;;;;;;24.54;57.48;95508.44;4962557;28;20234;-88
2022/08/14 09:03:03;;;;;;;3.63;2.90;;;;;;;24.77;56.13;95504.13;4934771;28;20224;-87
2022/08/14 09:05:34;;;;;;;2.60;2.40;;;;;;;24.82;56.80;95501.97;4953058;28;20217;-88
2022/08/14 09:08:17;;;;;;;4.60;3.05;;;;;;;24.98;55.60;95501.34;4945601;29;20300;-88
2022/08/14 09:10:47;;;;;;;2.80;2.60;;;;;;;25.01;57.25;95492.38;4944578;29;20237;-88
2022/08/14 09:13:15;;;;;;;4.18;2.67;;;;;;;25.17;58.83;95498.84;4943562;28;20210;-88
2022/08/14 09:15:44;;;;;;;2.83;2.63;;;;;;;25.22;57.61;95495.84;4943396;29;20241;-88
2022/08/14 09:18:13;;;;;;;4.45;2.70;;;;;;;25.22;55.46;95490.31;4948302;29;20212;-88
2022/08/14 09:20:42;;;;;;;4.22;2.80;;;;;;;25.20;56.19;95485.13;4946945;29;20214;-88
2022/08/14 09:23:11;;;;;;;3.30;3.03;;;;;;;25.21;57.93;95495.03;4935855;28;20210;-88
2022/08/14 09:25:40;;;;;;;4.07;2.63;;;;;;;25.26;55.79;95482.97;4946376;29;20309;-88
2022/08/14 09:28:09;;;;;;;3.20;2.90;;;;;;;25.27;55.61;95481.78;4944906;28;20216;-87
2022/08/14 09:30:39;;;;;;;3.05;2.83;;;;;;;25.10;54.74;95468.19;4947668;28;20253;-88
2022/08/14 09:33:43;;;;;;;3.10;2.60;;;;;;;25.14;56.24;95482.94;4947908;28;20210;-87
2022/08/14 09:36:35;;;;;;;4.35;2.50;;;;;;;25.06;54.03;95481.91;4941757;29;20228;-87
2022/08/14 09:39:13;;;;;;;2.70;2.50;;;;;;;25.13;51.96;95481.31;4946059;29;20312;-87
2022/08/14 09:41:55;;;;;;;3.47;2.80;;;;;;;25.11;52.19;95476.13;4940689;28;20257;-87
2022/08/14 09:44:44;;;;;;;3.20;2.90;;;;;;;25.13;52.11;95481.31;4946950;28;20229;-87
2022/08/14 09:47:13;;;;;;;3.85;2.60;;;;;;;25.20;52.45;95478.78;4944716;29;20205;-87
2022/08/14 09:49:41;;;;;;;4.75;3.33;;;;;;;25.07;54.11;95482.72;4938269;29;20241;-87
2022/08/14 09:52:10;;;;;;;3.78;2.90;;;;;;;25.15;54.93;95484.56;4943664;29;20288;-87
2022/08/14 09:54:42;;;;;;;7.93;2.97;;;;;;;24.99;57.80;95480.84;4941685;29;20202;-87
2022/08/14 09:57:10;;;;;;;3.45;3.15;;;;;;;24.96;56.36;95481.53;4935316;28;20242;-88
2022/08/14 09:59:44;;;;;;;3.65;3.00;;;;;;;25.00;56.76;95476.94;4947754;28;20208;-87
2022/08/14 10:02:22;;;;;;;6.80;2.85;;;;;;;25.18;55.93;95489.38;4957857;28;20210;-87
2022/08/14 10:05:03;;;;;;;3.08;2.85;;;;;;;25.22;55.29;95482.84;4936755;29;20206;-87
2022/08/14 10:07:32;;;;;;;4.03;2.80;;;;;;;25.24;57.94;95488.03;4944837;28;20202;-87
2022/08/14 10:10:00;;;;;;;3.08;2.88;;;;;;;25.12;60.31;95479.72;4944210;29;20206;-88
2022/08/14 10:12:44;;;;;;;3.75;3.20;;;;;;;25.14;59.95;95478.22;4940336;29;20216;-87
2022/08/14 10:15:19;;;;;;;4.38;3.00;;;;;;;25.21;59.98;95483.16;4960319;28;20217;-87
2022/08/14 10:17:47;;;;;;;3.42;3.10;;;;;;;25.24;58.99;95477.78;4935060;29;20205;-87
2022/08/14 10:20:16;;;;;;;2.97;2.70;;;;;;;25.33;60.56;95463.03;4948040;29;20205;-87
2022/08/14 10:22:43;;;;;;;3.85;3.10;;;;;;;25.28;60.59;95472.34;4949732;29;20209;-87
2022/08/14 10:25:13;;;;;;;3.55;3.25;;;;;;;25.18;61.45;95473.59;4945061;29;20364;-87
2022/08/14 10:27:41;;;;;;;3.63;3.33;;;;;;;25.22;61.43;95468.22;4954161;28;20221;-87
2022/08/14 10:30:15;;;;;;;3.40;3.10;;;;;;;25.16;60.37;95469.59;4948267;29;20307;-87
2022/08/14 10:32:49;;;;;;;4.28;3.40;;;;;;;25.24;59.17;95460.41;4960587;28;20214;-87
2022/08/14 10:35:17;;;;;;;3.05;2.85;;;;;;;25.32;61.06;95467.75;4953330;28;20208;-87
2022/08/14 10:37:48;;;;;;;3.70;3.13;;;;;;;25.33;60.02;95463.84;4934638;29;20209;-87
2022/08/14 10:40:26;;;;;;;5.72;3.38;;;;;;;25.58;58.22;95459.91;4955842;28;20228;-87
2022/08/14 10:42:55;;;;;;;3.28;2.97;;;;;;;25.78;56.53;95462.88;4945538;29;20220;-87
2022/08/14 10:45:24;;;;;;;2.95;2.75;;;;;;;25.98;54.70;95451.69;4945070;29;20217;-87
2022/08/14 10:47:54;;;;;;;5.88;2.65;;;;;;;26.20;53.74;95469.69;4931858;28;20207;-87
2022/08/14 10:50:30;;;;;;;3.35;2.88;;;;;;;26.32;50.66;95475.22;4944660;29;20237;-86
2022/08/14 10:52:58;;;;;;;3.45;2.90;;;;;;;26.26;53.45;95460.03;4936979;28;20210;-87
2022/08/14 10:55:32;;;;;;;2.92;2.72;;;;;;;26.29;53.74;95459.31;4941528;29;20245;-87
2022/08/14 10:57:59;;;;;;;3.10;2.90;;;;;;;26.23;54.38;95459.88;4948884;29;20220;-87
2022/08/14 11:00:28;;;;;;;4.15;2.70;;;;;;;26.21;53.97;95468.53;4938687;29;20308;-87
2022/08/14 11:03:01;;;;;;;2.70;2.50;;;;;;;26.21;52.13;95476.84;4950827;28;20205;-87
2022/08/14 11:05:40;;;;;;;2.85;2.65;;;;;;;26.25;51.88;95471.41;4946141;29;20312;-87
2022/08/14 11:08:08;;;;;;;2.85;2.63;;;;;;;26.26;51.67;95468.34;4945245;28;20214;-87
2022/08/14 11:10:41;;;;;;;2.95;2.70;;;;;;;26.44;52.19;95468.84;4951253;29;20217;-87
2022/08/14 11:13:09;;;;;;;4.95;2.90;;;;;;;26.58;51.20;95485.03;4947623;28;20220;-87
2022/08/14 11:15:36;;;;;;;5.53;2.83;;;;;;;26.66;48.74;95481.31;4939703;28;20210;-87
2022/08/14 11:18:05;;;;;;;2.90;2.70;;;;;;;26.94;49.12;95481.28;4955190;28;20272;-87
2022/08/14 11:20:32;;;;;;;3.03;2.60;;;;;;;27.16;47.11;95488.19;4954854;28;20255;-87
2022/08/14 11:23:01;;;;;;;2.65;2.45;;;;;;;27.34;46.23;95484.72;4944655;29;20214;-87
2022/08/14 11:25:31;;;;;;;2.60;2.40;;;;;;;27.33;44.92;95480.31;4947907;29;20221;-87
2022/08/14 11:27:59;;;;;;;2.90;2.70;;;;;;;27.43;44.71;95484.53;4947385;29;20205;-87
2022/08/14 11:30:29;;;;;;;4.00;2.70;;;;;;;27.48;42.46;95481.47;4945385;29;20213;-87
2022/08/14 11:32:58;;;;;;;3.42;2.60;;;;;;;27.52;42.19;95482.38;4955380;28;20246;-87
2022/08/14 11:35:28;;;;;;;4.43;2.75;;;;;;;27.52;42.21;95489.88;4950800;28;20300;-87
2022/08/14 11:37:58;;;;;;;3.00;2.70;;;;;;;27.47;41.69;95489.00;4960386;28;20217;-87
2022/08/14 11:40:27;;;;;;;3.42;2.60;;;;;;;27.52;42.05;95496.22;4950457;29;20217;-87
2022/08/14 11:42:55;;;;;;;3.28;2.70;;;;;;;27.52;41.42;95490.69;4944490;29;20305;-87
2022/08/14 11:45:24;;;;;;;4.95;3.00;;;;;;;27.75;40.46;95488.88;4935955;29;20214;-87
2022/08/14 11:47:53;;;;;;;2.85;2.63;;;;;;;27.84;41.25;95497.81;4943629;29;20333;-88
2022/08/14 11:50:23;;;;;;;2.92;2.60;;;;;;;27.93;41.00;95491.25;4943906;29;20289;-87
2022/08/14 11:52:53;;;;;;;4.90;2.63;;;;;;;27.89;40.21;95498.72;4947270;29;20229;-87